Oluja — V7QE8 — position and weather

sailwx.info

Track history (hours):
 
Tides and Currents Weather Stations Pressure Air Temp Water Temp Dewpoint Dewpoint Depression Visibility Wind Speed Wind Dir Waves Ship Positions

Oluja

Last reported at 2014-Jun-18 22:06 UTC. Time now 2014-Aug-23 05:34 UTC.
Position N 46°02' W 002°04'.
Warning: this ship's position is months out of date.

Length 188 m; draft 10.2 m.

Type: Cargo ship. MMSI: 538003345.

Date/timePositionNaut miles runAvg speedWind from/ knotsBaromVisibWave heightAir tempDewpointWater temp
2014-Jun-18 22:06N 46°02' W 002°04'611.3
2014-Jun-18 21:33N 46°05' W 001°56'1110.9
2014-Jun-18 20:32N 46°07' W 001°40'1010.4
2014-Jun-18 19:32N 46°07' W 001°25'  
2014-Jun-14 22:09N 46°06' W 001°18'5 7.9
2014-Jun-14 21:31N 46°07' W 001°25'8 8.6
2014-Jun-14 20:33N 46°07' W 001°37'8 7.8
2014-Jun-14 19:33N 46°04' W 001°47'11 9.0
2014-Jun-14 18:18N 45°53' W 001°49'7 8.8
2014-Jun-14 17:33N 45°47' W 001°53'121 8.6
2014-Jun-14 03:29N 43°49' W 002°35'3 1.0
2014-Jun-14 00:19N 43°51' W 002°38'0 0.1
2014-Jun-13 21:18N 43°51' W 002°39'1 0.5
2014-Jun-13 19:31N 43°52' W 002°38'1 0.7
2014-Jun-13 18:12N 43°53' W 002°37'1 0.8
2014-Jun-13 17:32N 43°54' W 002°37'1 0.9
2014-Jun-13 16:31N 43°54' W 002°37'3 1.0
2014-Jun-13 13:33N 43°57' W 002°36'6 0.9
2014-Jun-13 07:31N 44°01' W 002°42'1 0.9
2014-Jun-13 06:34N 44°01' W 002°43'1 0.7
2014-Jun-13 05:34N 44°01' W 002°44'1 0.7
2014-Jun-13 04:33N 44°01' W 002°45'1 0.8
2014-Jun-13 03:20N 44°00' W 002°46'1 0.6
2014-Jun-13 02:08N 44°00' W 002°47'1 0.2
2014-Jun-12 21:33N 44°01' W 002°48'15 7.3
2014-Jun-12 19:34N 43°47' W 002°55'1211.8
2014-Jun-12 18:33N 43°36' W 003°01'1211.8
2014-Jun-12 17:34N 43°25' W 003°06'5 4.7
2014-Jun-12 16:31N 43°21' W 003°02'0 0.0
2014-Jun-12 15:31N 43°21' W 003°02'0 0.0
2014-Jun-12 14:28N 43°21' W 003°02'0 0.0
2014-Jun-12 13:31N 43°21' W 003°02'0 0.0
2014-Jun-12 12:31N 43°21' W 003°02'0 0.0
2014-Jun-12 11:28N 43°21' W 003°02'0 0.0
2014-Jun-12 10:31N 43°21' W 003°02'0 0.0
2014-Jun-12 09:31N 43°21' W 003°02'0 0.0
2014-Jun-12 08:31N 43°21' W 003°02'0 0.0
2014-Jun-12 07:31N 43°21' W 003°02'0 0.0
2014-Jun-12 06:31N 43°21' W 003°02'0 0.0
2014-Jun-12 05:31N 43°21' W 003°02'0 0.0
2014-Jun-12 04:31N 43°21' W 003°02'0 0.0
2014-Jun-12 03:28N 43°21' W 003°02'0 0.0
2014-Jun-12 02:31N 43°21' W 003°02'0 0.0
2014-Jun-12 01:31N 43°21' W 003°02'0 0.0
2014-Jun-12 00:31N 43°21' W 003°02'0 0.0
2014-Jun-11 23:31N 43°21' W 003°02'0 0.0
2014-Jun-11 22:31N 43°21' W 003°02'0 0.0
2014-Jun-11 21:31N 43°21' W 003°02'0 0.0
2014-Jun-11 20:31N 43°21' W 003°02'0 0.0
2014-Jun-11 19:31N 43°21' W 003°02'0 0.0
2014-Jun-11 18:31N 43°21' W 003°02'0 0.0
2014-Jun-11 17:31N 43°21' W 003°02'30803142.1
2014-Jun-11 16:32N 26°18' E 055°57'30803020.6
2014-Jun-11 15:31N 43°21' W 003°02'0 0.0
2014-Jun-11 14:31N 43°21' W 003°02'0 0.0
2014-Jun-11 13:31N 43°21' W 003°02'0 0.0
2014-Jun-11 12:28N 43°21' W 003°02'0 0.0
2014-Jun-11 11:31N 43°21' W 003°02'0 0.0
2014-Jun-11 10:31N 43°21' W 003°02'0 0.0
2014-Jun-11 09:31N 43°21' W 003°02'0 0.0
2014-Jun-11 08:28N 43°21' W 003°02'0 0.0
2014-Jun-11 07:31N 43°21' W 003°02'0 0.0
2014-Jun-11 06:31N 43°21' W 003°02'0 0.0
2014-Jun-11 05:31N 43°21' W 003°02'0 0.0
2014-Jun-11 04:31N 43°21' W 003°02'0 0.0
2014-Jun-11 03:31N 43°21' W 003°02'0 0.0
2014-Jun-11 02:31N 43°21' W 003°02'0 0.0
2014-Jun-11 01:31N 43°21' W 003°02'0 0.0
2014-Jun-11 00:31N 43°21' W 003°02'0 0.0
2014-Jun-10 23:31N 43°21' W 003°02'0 0.0
2014-Jun-10 22:31N 43°21' W 003°02'0 0.0
2014-Jun-10 21:31N 43°21' W 003°02'0 0.0
2014-Jun-10 20:31N 43°21' W 003°02'0 0.0
2014-Jun-10 19:31N 43°21' W 003°02'0 0.0
2014-Jun-10 18:31N 43°21' W 003°02'0 0.0
2014-Jun-10 17:31N 43°21' W 003°02'0 0.0
2014-Jun-10 16:31N 43°21' W 003°02'0 0.0
2014-Jun-10 15:31N 43°21' W 003°02'0 0.0
2014-Jun-10 14:31N 43°21' W 003°02'0 0.0
2014-Jun-10 13:31N 43°21' W 003°02'0 0.0
2014-Jun-10 12:31N 43°21' W 003°02'0 0.0
2014-Jun-10 11:31N 43°21' W 003°02'0 0.0
2014-Jun-10 10:31N 43°21' W 003°02'0 0.0
2014-Jun-10 09:31N 43°21' W 003°02'0 0.0
2014-Jun-10 08:31N 43°21' W 003°02'0 0.0
2014-Jun-10 07:31N 43°21' W 003°02'0 0.0
2014-Jun-10 06:31N 43°21' W 003°02'0 0.0
2014-Jun-10 03:31N 43°21' W 003°02'0 0.0
2014-Jun-10 02:31N 43°21' W 003°02'0 0.0
2014-Jun-10 01:31N 43°21' W 003°02'0 0.0
2014-Jun-10 00:31N 43°21' W 003°02'0 0.0
2014-Jun-09 23:31N 43°21' W 003°02'0 0.0
2014-Jun-09 22:31N 43°21' W 003°02'0 0.0
2014-Jun-09 21:31N 43°21' W 003°02'0 0.0
2014-Jun-09 20:31N 43°21' W 003°02'0 0.0
2014-Jun-09 19:28N 43°21' W 003°02'0 0.0
2014-Jun-09 18:28N 43°21' W 003°02'0 0.0
2014-Jun-09 17:31N 43°21' W 003°02'0 0.0
2014-Jun-09 16:31N 43°21' W 003°02'0 0.0
2014-Jun-09 15:31N 43°21' W 003°02'0 0.0
2014-Jun-09 14:31N 43°21' W 003°02'0 0.0
2014-Jun-09 13:31N 43°21' W 003°02'0 0.0
2014-Jun-09 12:31N 43°21' W 003°02'0 0.0
2014-Jun-09 11:31N 43°21' W 003°02'0 0.0
2014-Jun-09 10:31N 43°21' W 003°02'0 0.0
2014-Jun-09 09:31N 43°21' W 003°02'0 0.0
2014-Jun-09 08:31N 43°21' W 003°02'30603091.4
2014-Jun-09 07:31N 26°22' E 055°35'30603031.0
2014-Jun-09 06:31N 43°21' W 003°02'  
Track history (hours):
 
Tides and Currents Weather Stations Pressure Air Temp Water Temp Dewpoint Dewpoint Depression Visibility Wind Speed Wind Dir Waves Ship Positions

Oluja

Last reported at 2014-Jun-18 22:06 UTC. Time now 2014-Aug-23 05:34 UTC.
Position N 46°02' W 002°04'.
Warning: this ship's position is months out of date.

Length 188 m; draft 10.2 m.

Type: Cargo ship. MMSI: 538003345.

Date/timePositionNaut miles runAvg speedWind from/ knotsBaromVisibWave heightAir tempDewpointWater temp
2014-Jun-18 22:06N 46°02' W 002°04'611.3
2014-Jun-18 21:33N 46°05' W 001°56'1110.9
2014-Jun-18 20:32N 46°07' W 001°40'1010.4
2014-Jun-18 19:32N 46°07' W 001°25'  
2014-Jun-14 22:09N 46°06' W 001°18'5 7.9
2014-Jun-14 21:31N 46°07' W 001°25'8 8.6
2014-Jun-14 20:33N 46°07' W 001°37'8 7.8
2014-Jun-14 19:33N 46°04' W 001°47'11 9.0
2014-Jun-14 18:18N 45°53' W 001°49'7 8.8
2014-Jun-14 17:33N 45°47' W 001°53'121 8.6
2014-Jun-14 03:29N 43°49' W 002°35'3 1.0
2014-Jun-14 00:19N 43°51' W 002°38'0 0.1
2014-Jun-13 21:18N 43°51' W 002°39'1 0.5
2014-Jun-13 19:31N 43°52' W 002°38'1 0.7
2014-Jun-13 18:12N 43°53' W 002°37'1 0.8
2014-Jun-13 17:32N 43°54' W 002°37'1 0.9
2014-Jun-13 16:31N 43°54' W 002°37'3 1.0
2014-Jun-13 13:33N 43°57' W 002°36'6 0.9
2014-Jun-13 07:31N 44°01' W 002°42'1 0.9
2014-Jun-13 06:34N 44°01' W 002°43'1 0.7
2014-Jun-13 05:34N 44°01' W 002°44'1 0.7
2014-Jun-13 04:33N 44°01' W 002°45'1 0.8
2014-Jun-13 03:20N 44°00' W 002°46'1 0.6
2014-Jun-13 02:08N 44°00' W 002°47'1 0.2
2014-Jun-12 21:33N 44°01' W 002°48'15 7.3
2014-Jun-12 19:34N 43°47' W 002°55'1211.8
2014-Jun-12 18:33N 43°36' W 003°01'1211.8
2014-Jun-12 17:34N 43°25' W 003°06'5 4.7
2014-Jun-12 16:31N 43°21' W 003°02'0 0.0
2014-Jun-12 15:31N 43°21' W 003°02'0 0.0
2014-Jun-12 14:28N 43°21' W 003°02'0 0.0
2014-Jun-12 13:31N 43°21' W 003°02'0 0.0
2014-Jun-12 12:31N 43°21' W 003°02'0 0.0
2014-Jun-12 11:28N 43°21' W 003°02'0 0.0
2014-Jun-12 10:31N 43°21' W 003°02'0 0.0
2014-Jun-12 09:31N 43°21' W 003°02'0 0.0
2014-Jun-12 08:31N 43°21' W 003°02'0 0.0
2014-Jun-12 07:31N 43°21' W 003°02'0 0.0
2014-Jun-12 06:31N 43°21' W 003°02'0 0.0
2014-Jun-12 05:31N 43°21' W 003°02'0 0.0
2014-Jun-12 04:31N 43°21' W 003°02'0 0.0
2014-Jun-12 03:28N 43°21' W 003°02'0 0.0
2014-Jun-12 02:31N 43°21' W 003°02'0 0.0
2014-Jun-12 01:31N 43°21' W 003°02'0 0.0
2014-Jun-12 00:31N 43°21' W 003°02'0 0.0
2014-Jun-11 23:31N 43°21' W 003°02'0 0.0
2014-Jun-11 22:31N 43°21' W 003°02'0 0.0
2014-Jun-11 21:31N 43°21' W 003°02'0 0.0
2014-Jun-11 20:31N 43°21' W 003°02'0 0.0
2014-Jun-11 19:31N 43°21' W 003°02'0 0.0
2014-Jun-11 18:31N 43°21' W 003°02'0 0.0
2014-Jun-11 17:31N 43°21' W 003°02'30803142.1
2014-Jun-11 16:32N 26°18' E 055°57'30803020.6
2014-Jun-11 15:31N 43°21' W 003°02'0 0.0
2014-Jun-11 14:31N 43°21' W 003°02'0 0.0
2014-Jun-11 13:31N 43°21' W 003°02'0 0.0
2014-Jun-11 12:28N 43°21' W 003°02'0 0.0
2014-Jun-11 11:31N 43°21' W 003°02'0 0.0
2014-Jun-11 10:31N 43°21' W 003°02'0 0.0
2014-Jun-11 09:31N 43°21' W 003°02'0 0.0
2014-Jun-11 08:28N 43°21' W 003°02'0 0.0
2014-Jun-11 07:31N 43°21' W 003°02'0 0.0
2014-Jun-11 06:31N 43°21' W 003°02'0 0.0
2014-Jun-11 05:31N 43°21' W 003°02'0 0.0
2014-Jun-11 04:31N 43°21' W 003°02'0 0.0
2014-Jun-11 03:31N 43°21' W 003°02'0 0.0
2014-Jun-11 02:31N 43°21' W 003°02'0 0.0
2014-Jun-11 01:31N 43°21' W 003°02'0 0.0
2014-Jun-11 00:31N 43°21' W 003°02'0 0.0
2014-Jun-10 23:31N 43°21' W 003°02'0 0.0
2014-Jun-10 22:31N 43°21' W 003°02'0 0.0
2014-Jun-10 21:31N 43°21' W 003°02'0 0.0
2014-Jun-10 20:31N 43°21' W 003°02'0 0.0
2014-Jun-10 19:31N 43°21' W 003°02'0 0.0
2014-Jun-10 18:31N 43°21' W 003°02'0 0.0
2014-Jun-10 17:31N 43°21' W 003°02'0 0.0
2014-Jun-10 16:31N 43°21' W 003°02'0 0.0
2014-Jun-10 15:31N 43°21' W 003°02'0 0.0
2014-Jun-10 14:31N 43°21' W 003°02'0 0.0
2014-Jun-10 13:31N 43°21' W 003°02'0 0.0
2014-Jun-10 12:31N 43°21' W 003°02'0 0.0
2014-Jun-10 11:31N 43°21' W 003°02'0 0.0
2014-Jun-10 10:31N 43°21' W 003°02'0 0.0
2014-Jun-10 09:31N 43°21' W 003°02'0 0.0
2014-Jun-10 08:31N 43°21' W 003°02'0 0.0
2014-Jun-10 07:31N 43°21' W 003°02'0 0.0
2014-Jun-10 06:31N 43°21' W 003°02'0 0.0
2014-Jun-10 03:31N 43°21' W 003°02'0 0.0
2014-Jun-10 02:31N 43°21' W 003°02'0 0.0
2014-Jun-10 01:31N 43°21' W 003°02'0 0.0
2014-Jun-10 00:31N 43°21' W 003°02'0 0.0
2014-Jun-09 23:31N 43°21' W 003°02'0 0.0
2014-Jun-09 22:31N 43°21' W 003°02'0 0.0
2014-Jun-09 21:31N 43°21' W 003°02'0 0.0
2014-Jun-09 20:31N 43°21' W 003°02'0 0.0
2014-Jun-09 19:28N 43°21' W 003°02'0 0.0
2014-Jun-09 18:28N 43°21' W 003°02'0 0.0
2014-Jun-09 17:31N 43°21' W 003°02'0 0.0
2014-Jun-09 16:31N 43°21' W 003°02'0 0.0
2014-Jun-09 15:31N 43°21' W 003°02'0 0.0
2014-Jun-09 14:31N 43°21' W 003°02'0 0.0
2014-Jun-09 13:31N 43°21' W 003°02'0 0.0
2014-Jun-09 12:31N 43°21' W 003°02'0 0.0
2014-Jun-09 11:31N 43°21' W 003°02'0 0.0
2014-Jun-09 10:31N 43°21' W 003°02'0 0.0
2014-Jun-09 09:31N 43°21' W 003°02'0 0.0
2014-Jun-09 08:31N 43°21' W 003°02'30603091.4
2014-Jun-09 07:31N 26°22' E 055°35'30603031.0
2014-Jun-09 06:31N 43°21' W 003°02'  

Dump ship's entire track history